sensor_id;sensor_type;location;lat;lon;timestamp;P1;durP1;ratioP1;P2;durP2;ratioP2
48522;SDS011;34315;50.150;11.070;2023-04-24T00:02:35;3.95;;;1.40;;
48522;SDS011;34315;50.150;11.070;2023-04-24T00:07:40;3.33;;;1.80;;
48522;SDS011;34315;50.150;11.070;2023-04-24T00:12:42;3.33;;;2.08;;
48522;SDS011;34315;50.150;11.070;2023-04-24T00:17:43;4.60;;;1.83;;
48522;SDS011;34315;50.150;11.070;2023-04-24T00:22:44;8.85;;;3.45;;
48522;SDS011;34315;50.150;11.070;2023-04-24T00:27:45;2.20;;;1.35;;
48522;SDS011;34315;50.150;11.070;2023-04-24T00:32:46;2.33;;;1.40;;
48522;SDS011;34315;50.150;11.070;2023-04-24T00:37:48;4.10;;;1.50;;
48522;SDS011;34315;50.150;11.070;2023-04-24T00:42:50;2.90;;;1.20;;
48522;SDS011;34315;50.150;11.070;2023-04-24T00:47:52;2.60;;;1.30;;
48522;SDS011;34315;50.150;11.070;2023-04-24T00:52:53;2.60;;;1.10;;
48522;SDS011;34315;50.150;11.070;2023-04-24T00:57:54;2.63;;;1.27;;
48522;SDS011;34315;50.150;11.070;2023-04-24T01:02:55;3.78;;;1.45;;
48522;SDS011;34315;50.150;11.070;2023-04-24T01:07:59;3.20;;;1.40;;
48522;SDS011;34315;50.150;11.070;2023-04-24T01:13:00;1.92;;;1.20;;
48522;SDS011;34315;50.150;11.070;2023-04-24T01:18:02;5.18;;;1.20;;
48522;SDS011;34315;50.150;11.070;2023-04-24T01:23:03;2.08;;;1.13;;
48522;SDS011;34315;50.150;11.070;2023-04-24T01:28:05;4.22;;;1.30;;
48522;SDS011;34315;50.150;11.070;2023-04-24T01:33:06;2.35;;;1.20;;
48522;SDS011;34315;50.150;11.070;2023-04-24T01:38:07;1.52;;;1.05;;
48522;SDS011;34315;50.150;11.070;2023-04-24T01:43:08;1.85;;;1.45;;
48522;SDS011;34315;50.150;11.070;2023-04-24T01:48:10;2.97;;;1.20;;
48522;SDS011;34315;50.150;11.070;2023-04-24T01:53:12;2.03;;;1.42;;
48522;SDS011;34315;50.150;11.070;2023-04-24T01:58:13;3.33;;;1.60;;
48522;SDS011;34315;50.150;11.070;2023-04-24T02:03:14;2.90;;;1.20;;
48522;SDS011;34315;50.150;11.070;2023-04-24T02:08:15;2.38;;;1.55;;
48522;SDS011;34315;50.150;11.070;2023-04-24T02:13:16;4.32;;;1.30;;
48522;SDS011;34315;50.150;11.070;2023-04-24T02:18:17;2.45;;;1.20;;
48522;SDS011;34315;50.150;11.070;2023-04-24T02:23:18;2.42;;;1.20;;
48522;SDS011;34315;50.150;11.070;2023-04-24T02:28:20;3.97;;;1.38;;
48522;SDS011;34315;50.150;11.070;2023-04-24T02:33:21;2.38;;;1.20;;
48522;SDS011;34315;50.150;11.070;2023-04-24T02:38:22;2.75;;;1.30;;
48522;SDS011;34315;50.150;11.070;2023-04-24T02:43:23;2.22;;;1.10;;
48522;SDS011;34315;50.150;11.070;2023-04-24T02:48:25;1.55;;;1.00;;
48522;SDS011;34315;50.150;11.070;2023-04-24T02:53:26;4.78;;;1.30;;
48522;SDS011;34315;50.150;11.070;2023-04-24T02:58:27;1.95;;;1.00;;
48522;SDS011;34315;50.150;11.070;2023-04-24T03:03:29;3.80;;;1.25;;
48522;SDS011;34315;50.150;11.070;2023-04-24T03:08:30;2.22;;;1.27;;
48522;SDS011;34315;50.150;11.070;2023-04-24T03:13:31;3.38;;;1.00;;
48522;SDS011;34315;50.150;11.070;2023-04-24T03:18:32;2.47;;;1.45;;
48522;SDS011;34315;50.150;11.070;2023-04-24T03:23:33;3.58;;;1.80;;
48522;SDS011;34315;50.150;11.070;2023-04-24T03:28:35;2.53;;;1.70;;
48522;SDS011;34315;50.150;11.070;2023-04-24T03:33:38;6.18;;;1.65;;
48522;SDS011;34315;50.150;11.070;2023-04-24T03:38:41;4.25;;;1.60;;
48522;SDS011;34315;50.150;11.070;2023-04-24T03:43:54;3.08;;;1.40;;
48522;SDS011;34315;50.150;11.070;2023-04-24T03:48:55;2.42;;;1.30;;
48522;SDS011;34315;50.150;11.070;2023-04-24T03:54:01;5.50;;;1.55;;
48522;SDS011;34315;50.150;11.070;2023-04-24T03:59:05;2.15;;;1.35;;
48522;SDS011;34315;50.150;11.070;2023-04-24T04:04:07;2.45;;;1.33;;
48522;SDS011;34315;50.150;11.070;2023-04-24T04:09:11;2.63;;;1.30;;
48522;SDS011;34315;50.150;11.070;2023-04-24T04:14:12;5.60;;;1.30;;
48522;SDS011;34315;50.150;11.070;2023-04-24T04:19:16;2.45;;;1.13;;
48522;SDS011;34315;50.150;11.070;2023-04-24T04:24:17;2.67;;;1.38;;
48522;SDS011;34315;50.150;11.070;2023-04-24T04:29:20;1.65;;;0.98;;
48522;SDS011;34315;50.150;11.070;2023-04-24T04:34:24;5.07;;;1.20;;
48522;SDS011;34315;50.150;11.070;2023-04-24T04:39:26;3.45;;;1.40;;
48522;SDS011;34315;50.150;11.070;2023-04-24T04:44:38;3.10;;;1.30;;
48522;SDS011;34315;50.150;11.070;2023-04-24T04:49:41;3.60;;;1.42;;
48522;SDS011;34315;50.150;11.070;2023-04-24T04:54:51;3.65;;;1.10;;
48522;SDS011;34315;50.150;11.070;2023-04-24T04:59:53;2.70;;;1.10;;
48522;SDS011;34315;50.150;11.070;2023-04-24T05:05:07;3.25;;;1.05;;
48522;SDS011;34315;50.150;11.070;2023-04-24T05:10:10;3.42;;;1.10;;
48522;SDS011;34315;50.150;11.070;2023-04-24T05:15:11;1.63;;;0.88;;
48522;SDS011;34315;50.150;11.070;2023-04-24T05:20:12;1.95;;;0.77;;
48522;SDS011;34315;50.150;11.070;2023-04-24T05:25:14;2.42;;;0.95;;
48522;SDS011;34315;50.150;11.070;2023-04-24T05:30:21;2.30;;;0.90;;
48522;SDS011;34315;50.150;11.070;2023-04-24T05:35:24;2.20;;;0.80;;
48522;SDS011;34315;50.150;11.070;2023-04-24T05:40:25;1.17;;;0.80;;
48522;SDS011;34315;50.150;11.070;2023-04-24T05:45:26;1.63;;;1.00;;
48522;SDS011;34315;50.150;11.070;2023-04-24T05:50:28;1.27;;;0.85;;
48522;SDS011;34315;50.150;11.070;2023-04-24T05:55:30;2.95;;;1.00;;
48522;SDS011;34315;50.150;11.070;2023-04-24T06:00:31;1.27;;;1.05;;
48522;SDS011;34315;50.150;11.070;2023-04-24T06:05:39;2.28;;;0.90;;
48522;SDS011;34315;50.150;11.070;2023-04-24T06:10:41;1.88;;;0.80;;
48522;SDS011;34315;50.150;11.070;2023-04-24T06:15:43;2.25;;;0.90;;
48522;SDS011;34315;50.150;11.070;2023-04-24T06:20:50;4.32;;;0.98;;
48522;SDS011;34315;50.150;11.070;2023-04-24T06:25:52;2.60;;;0.90;;
48522;SDS011;34315;50.150;11.070;2023-04-24T06:30:53;4.85;;;1.00;;
48522;SDS011;34315;50.150;11.070;2023-04-24T06:35:54;2.20;;;0.90;;
48522;SDS011;34315;50.150;11.070;2023-04-24T06:40:55;2.90;;;1.20;;
48522;SDS011;34315;50.150;11.070;2023-04-24T06:45:57;7.78;;;3.60;;
48522;SDS011;34315;50.150;11.070;2023-04-24T06:50:58;7.03;;;2.65;;
48522;SDS011;34315;50.150;11.070;2023-04-24T06:55:59;5.53;;;2.45;;
48522;SDS011;34315;50.150;11.070;2023-04-24T07:01:01;5.95;;;1.10;;
48522;SDS011;34315;50.150;11.070;2023-04-24T07:06:02;2.83;;;1.50;;
48522;SDS011;34315;50.150;11.070;2023-04-24T07:11:04;1.80;;;1.00;;
48522;SDS011;34315;50.150;11.070;2023-04-24T07:16:05;1.58;;;1.10;;
48522;SDS011;34315;50.150;11.070;2023-04-24T07:21:06;1.38;;;1.15;;
48522;SDS011;34315;50.150;11.070;2023-04-24T07:26:07;0.85;;;0.82;;
48522;SDS011;34315;50.150;11.070;2023-04-24T07:31:09;2.03;;;1.15;;
48522;SDS011;34315;50.150;11.070;2023-04-24T07:36:11;2.17;;;1.10;;
48522;SDS011;34315;50.150;11.070;2023-04-24T07:41:19;2.70;;;1.02;;
48522;SDS011;34315;50.150;11.070;2023-04-24T07:46:21;2.67;;;1.38;;
48522;SDS011;34315;50.150;11.070;2023-04-24T07:51:22;1.98;;;1.20;;
48522;SDS011;34315;50.150;11.070;2023-04-24T07:56:23;3.35;;;1.30;;
48522;SDS011;34315;50.150;11.070;2023-04-24T08:01:24;7.88;;;2.22;;
48522;SDS011;34315;50.150;11.070;2023-04-24T08:06:25;1.20;;;1.10;;
48522;SDS011;34315;50.150;11.070;2023-04-24T08:11:30;2.25;;;1.38;;
48522;SDS011;34315;50.150;11.070;2023-04-24T08:16:32;2.10;;;1.33;;
48522;SDS011;34315;50.150;11.070;2023-04-24T08:21:34;3.85;;;1.35;;
48522;SDS011;34315;50.150;11.070;2023-04-24T08:26:35;2.45;;;1.20;;
48522;SDS011;34315;50.150;11.070;2023-04-24T08:31:36;2.63;;;1.50;;
48522;SDS011;34315;50.150;11.070;2023-04-24T08:36:37;3.47;;;1.30;;
48522;SDS011;34315;50.150;11.070;2023-04-24T08:41:39;2.67;;;1.50;;
48522;SDS011;34315;50.150;11.070;2023-04-24T08:46:43;3.85;;;1.90;;
48522;SDS011;34315;50.150;11.070;2023-04-24T08:51:48;1.77;;;1.20;;
48522;SDS011;34315;50.150;11.070;2023-04-24T08:56:50;2.08;;;1.40;;
48522;SDS011;34315;50.150;11.070;2023-04-24T09:01:52;3.05;;;1.42;;
48522;SDS011;34315;50.150;11.070;2023-04-24T09:06:55;2.40;;;1.83;;
48522;SDS011;34315;50.150;11.070;2023-04-24T09:11:57;2.78;;;1.58;;
48522;SDS011;34315;50.150;11.070;2023-04-24T09:16:59;3.40;;;1.60;;
48522;SDS011;34315;50.150;11.070;2023-04-24T09:22:00;2.70;;;1.60;;
48522;SDS011;34315;50.150;11.070;2023-04-24T09:27:05;2.67;;;1.50;;
48522;SDS011;34315;50.150;11.070;2023-04-24T09:32:20;2.85;;;1.52;;
48522;SDS011;34315;50.150;11.070;2023-04-24T09:37:28;2.75;;;1.52;;
48522;SDS011;34315;50.150;11.070;2023-04-24T09:42:30;3.03;;;1.60;;
48522;SDS011;34315;50.150;11.070;2023-04-24T09:47:36;4.47;;;2.10;;
48522;SDS011;34315;50.150;11.070;2023-04-24T09:52:45;3.25;;;1.85;;
48522;SDS011;34315;50.150;11.070;2023-04-24T09:58:05;2.55;;;1.60;;
48522;SDS011;34315;50.150;11.070;2023-04-24T10:03:08;2.42;;;1.52;;
48522;SDS011;34315;50.150;11.070;2023-04-24T10:08:10;3.25;;;1.67;;
48522;SDS011;34315;50.150;11.070;2023-04-24T10:13:14;4.90;;;1.67;;
48522;SDS011;34315;50.150;11.070;2023-04-24T10:18:16;2.92;;;1.23;;
48522;SDS011;34315;50.150;11.070;2023-04-24T10:23:17;4.22;;;1.40;;
48522;SDS011;34315;50.150;11.070;2023-04-24T10:28:19;2.33;;;1.45;;
48522;SDS011;34315;50.150;11.070;2023-04-24T10:33:21;2.47;;;1.10;;
48522;SDS011;34315;50.150;11.070;2023-04-24T10:38:26;1.25;;;1.00;;
48522;SDS011;34315;50.150;11.070;2023-04-24T10:43:29;3.13;;;1.30;;
48522;SDS011;34315;50.150;11.070;2023-04-24T10:48:30;1.10;;;1.00;;
48522;SDS011;34315;50.150;11.070;2023-04-24T10:53:31;2.75;;;1.33;;
48522;SDS011;34315;50.150;11.070;2023-04-24T10:58:45;3.57;;;1.50;;
48522;SDS011;34315;50.150;11.070;2023-04-24T11:03:51;2.55;;;1.30;;
48522;SDS011;34315;50.150;11.070;2023-04-24T11:08:58;1.90;;;1.38;;
48522;SDS011;34315;50.150;11.070;2023-04-24T11:14:05;2.30;;;1.50;;
48522;SDS011;34315;50.150;11.070;2023-04-24T11:19:08;5.25;;;1.88;;
48522;SDS011;34315;50.150;11.070;2023-04-24T11:24:25;2.30;;;1.42;;
48522;SDS011;34315;50.150;11.070;2023-04-24T11:29:40;2.85;;;1.40;;
48522;SDS011;34315;50.150;11.070;2023-04-24T11:34:44;2.53;;;1.60;;
48522;SDS011;34315;50.150;11.070;2023-04-24T11:39:46;3.38;;;1.40;;
48522;SDS011;34315;50.150;11.070;2023-04-24T11:44:47;3.28;;;1.70;;
48522;SDS011;34315;50.150;11.070;2023-04-24T11:49:50;3.97;;;1.70;;
48522;SDS011;34315;50.150;11.070;2023-04-24T11:54:52;5.32;;;1.73;;
48522;SDS011;34315;50.150;11.070;2023-04-24T11:59:53;6.97;;;1.67;;
48522;SDS011;34315;50.150;11.070;2023-04-24T12:04:54;7.55;;;1.40;;
48522;SDS011;34315;50.150;11.070;2023-04-24T12:09:57;3.92;;;1.60;;
48522;SDS011;34315;50.150;11.070;2023-04-24T12:14:58;2.10;;;1.40;;
48522;SDS011;34315;50.150;11.070;2023-04-24T12:20:00;2.42;;;1.50;;
48522;SDS011;34315;50.150;11.070;2023-04-24T12:25:05;2.92;;;1.42;;
48522;SDS011;34315;50.150;11.070;2023-04-24T12:30:10;5.63;;;1.80;;
48522;SDS011;34315;50.150;11.070;2023-04-24T12:35:19;2.92;;;1.60;;
48522;SDS011;34315;50.150;11.070;2023-04-24T12:40:22;7.30;;;1.60;;
48522;SDS011;34315;50.150;11.070;2023-04-24T12:45:26;3.50;;;1.73;;
48522;SDS011;34315;50.150;11.070;2023-04-24T12:50:28;2.50;;;1.83;;
48522;SDS011;34315;50.150;11.070;2023-04-24T12:55:29;4.15;;;1.77;;
48522;SDS011;34315;50.150;11.070;2023-04-24T13:00:30;3.80;;;1.95;;
48522;SDS011;34315;50.150;11.070;2023-04-24T13:05:32;3.63;;;1.75;;
48522;SDS011;34315;50.150;11.070;2023-04-24T13:10:33;2.47;;;1.60;;
48522;SDS011;34315;50.150;11.070;2023-04-24T13:15:35;3.63;;;1.60;;
48522;SDS011;34315;50.150;11.070;2023-04-24T13:20:36;4.47;;;1.67;;
48522;SDS011;34315;50.150;11.070;2023-04-24T13:25:37;2.30;;;1.25;;
48522;SDS011;34315;50.150;11.070;2023-04-24T13:30:39;2.25;;;1.65;;
48522;SDS011;34315;50.150;11.070;2023-04-24T13:35:40;3.83;;;1.80;;
48522;SDS011;34315;50.150;11.070;2023-04-24T13:40:41;3.28;;;1.65;;
48522;SDS011;34315;50.150;11.070;2023-04-24T13:45:42;1.73;;;1.35;;
48522;SDS011;34315;50.150;11.070;2023-04-24T13:50:44;2.05;;;1.65;;
48522;SDS011;34315;50.150;11.070;2023-04-24T13:55:45;3.03;;;1.60;;
48522;SDS011;34315;50.150;11.070;2023-04-24T14:00:46;2.30;;;1.42;;
48522;SDS011;34315;50.150;11.070;2023-04-24T14:05:47;3.00;;;1.30;;
48522;SDS011;34315;50.150;11.070;2023-04-24T14:10:48;2.58;;;1.60;;
48522;SDS011;34315;50.150;11.070;2023-04-24T14:15:51;2.70;;;1.40;;
48522;SDS011;34315;50.150;11.070;2023-04-24T14:20:53;3.40;;;1.27;;
48522;SDS011;34315;50.150;11.070;2023-04-24T14:25:54;1.75;;;1.38;;
48522;SDS011;34315;50.150;11.070;2023-04-24T14:30:57;2.10;;;1.38;;
48522;SDS011;34315;50.150;11.070;2023-04-24T14:35:58;1.80;;;1.30;;
48522;SDS011;34315;50.150;11.070;2023-04-24T14:40:59;1.40;;;1.20;;
48522;SDS011;34315;50.150;11.070;2023-04-24T14:46:02;2.65;;;1.00;;
48522;SDS011;34315;50.150;11.070;2023-04-24T14:51:03;1.42;;;1.05;;
48522;SDS011;34315;50.150;11.070;2023-04-24T14:56:05;1.00;;;0.80;;
48522;SDS011;34315;50.150;11.070;2023-04-24T15:01:06;0.80;;;0.80;;
48522;SDS011;34315;50.150;11.070;2023-04-24T15:06:07;1.45;;;1.00;;
48522;SDS011;34315;50.150;11.070;2023-04-24T15:11:09;1.10;;;0.98;;
48522;SDS011;34315;50.150;11.070;2023-04-24T15:16:10;3.42;;;1.50;;
48522;SDS011;34315;50.150;11.070;2023-04-24T15:21:11;2.20;;;1.50;;
48522;SDS011;34315;50.150;11.070;2023-04-24T15:26:13;2.53;;;1.60;;
48522;SDS011;34315;50.150;11.070;2023-04-24T15:31:14;3.70;;;1.95;;
48522;SDS011;34315;50.150;11.070;2023-04-24T15:36:16;3.35;;;2.15;;
48522;SDS011;34315;50.150;11.070;2023-04-24T15:41:18;3.22;;;1.85;;
48522;SDS011;34315;50.150;11.070;2023-04-24T15:46:19;3.03;;;2.00;;
48522;SDS011;34315;50.150;11.070;2023-04-24T15:51:20;3.17;;;1.77;;
48522;SDS011;34315;50.150;11.070;2023-04-24T15:56:21;4.07;;;1.80;;
48522;SDS011;34315;50.150;11.070;2023-04-24T16:01:22;4.20;;;2.20;;
48522;SDS011;34315;50.150;11.070;2023-04-24T16:06:23;3.70;;;2.00;;
48522;SDS011;34315;50.150;11.070;2023-04-24T16:11:25;3.53;;;1.98;;
48522;SDS011;34315;50.150;11.070;2023-04-24T16:16:26;2.90;;;1.52;;
48522;SDS011;34315;50.150;11.070;2023-04-24T16:21:27;1.77;;;1.15;;
48522;SDS011;34315;50.150;11.070;2023-04-24T16:26:28;2.13;;;1.10;;
48522;SDS011;34315;50.150;11.070;2023-04-24T16:31:29;4.07;;;1.58;;
48522;SDS011;34315;50.150;11.070;2023-04-24T16:36:30;2.25;;;1.35;;
48522;SDS011;34315;50.150;11.070;2023-04-24T16:41:32;2.40;;;1.45;;
48522;SDS011;34315;50.150;11.070;2023-04-24T16:46:33;2.30;;;1.50;;
48522;SDS011;34315;50.150;11.070;2023-04-24T16:51:34;4.57;;;1.80;;
48522;SDS011;34315;50.150;11.070;2023-04-24T16:56:35;3.88;;;1.60;;
48522;SDS011;34315;50.150;11.070;2023-04-24T17:01:36;3.03;;;1.80;;
48522;SDS011;34315;50.150;11.070;2023-04-24T17:06:38;2.65;;;1.65;;
48522;SDS011;34315;50.150;11.070;2023-04-24T17:11:39;3.58;;;2.03;;
48522;SDS011;34315;50.150;11.070;2023-04-24T17:16:40;4.70;;;2.50;;
48522;SDS011;34315;50.150;11.070;2023-04-24T17:21:41;3.75;;;2.22;;
48522;SDS011;34315;50.150;11.070;2023-04-24T17:26:43;3.88;;;1.90;;
48522;SDS011;34315;50.150;11.070;2023-04-24T17:31:44;5.55;;;2.58;;
48522;SDS011;34315;50.150;11.070;2023-04-24T17:36:45;2.72;;;1.70;;
48522;SDS011;34315;50.150;11.070;2023-04-24T17:41:46;4.60;;;2.00;;
48522;SDS011;34315;50.150;11.070;2023-04-24T17:46:47;4.20;;;2.17;;
48522;SDS011;34315;50.150;11.070;2023-04-24T17:51:48;4.05;;;2.00;;
48522;SDS011;34315;50.150;11.070;2023-04-24T17:56:49;4.32;;;2.22;;
48522;SDS011;34315;50.150;11.070;2023-04-24T18:01:52;5.70;;;2.10;;
48522;SDS011;34315;50.150;11.070;2023-04-24T18:06:53;4.13;;;2.20;;
48522;SDS011;34315;50.150;11.070;2023-04-24T18:11:54;4.68;;;2.50;;
48522;SDS011;34315;50.150;11.070;2023-04-24T18:16:56;4.88;;;2.42;;
48522;SDS011;34315;50.150;11.070;2023-04-24T18:21:58;6.05;;;2.80;;
48522;SDS011;34315;50.150;11.070;2023-04-24T18:26:59;4.00;;;2.42;;
48522;SDS011;34315;50.150;11.070;2023-04-24T18:32:01;3.92;;;2.42;;
48522;SDS011;34315;50.150;11.070;2023-04-24T18:37:04;7.20;;;3.97;;
48522;SDS011;34315;50.150;11.070;2023-04-24T18:42:05;5.43;;;2.70;;
48522;SDS011;34315;50.150;11.070;2023-04-24T18:47:07;4.38;;;2.75;;
48522;SDS011;34315;50.150;11.070;2023-04-24T18:52:08;6.25;;;2.90;;
48522;SDS011;34315;50.150;11.070;2023-04-24T18:57:10;5.35;;;2.67;;
48522;SDS011;34315;50.150;11.070;2023-04-24T19:02:11;5.43;;;3.00;;
48522;SDS011;34315;50.150;11.070;2023-04-24T19:07:12;6.50;;;2.78;;
48522;SDS011;34315;50.150;11.070;2023-04-24T19:12:13;4.78;;;2.78;;
48522;SDS011;34315;50.150;11.070;2023-04-24T19:17:14;7.57;;;3.20;;
48522;SDS011;34315;50.150;11.070;2023-04-24T19:22:22;5.13;;;3.00;;
48522;SDS011;34315;50.150;11.070;2023-04-24T19:27:23;6.00;;;3.35;;
48522;SDS011;34315;50.150;11.070;2023-04-24T19:32:24;6.28;;;3.53;;
48522;SDS011;34315;50.150;11.070;2023-04-24T19:37:25;6.30;;;3.50;;
48522;SDS011;34315;50.150;11.070;2023-04-24T19:42:26;5.55;;;3.45;;
48522;SDS011;34315;50.150;11.070;2023-04-24T19:47:28;6.43;;;4.03;;
48522;SDS011;34315;50.150;11.070;2023-04-24T19:52:29;6.43;;;3.53;;
48522;SDS011;34315;50.150;11.070;2023-04-24T19:57:30;6.30;;;4.40;;
48522;SDS011;34315;50.150;11.070;2023-04-24T20:02:31;7.05;;;4.07;;
48522;SDS011;34315;50.150;11.070;2023-04-24T20:07:32;5.63;;;3.50;;
48522;SDS011;34315;50.150;11.070;2023-04-24T20:12:33;6.88;;;4.10;;
48522;SDS011;34315;50.150;11.070;2023-04-24T20:17:35;5.90;;;3.92;;
48522;SDS011;34315;50.150;11.070;2023-04-24T20:22:36;7.45;;;4.00;;
48522;SDS011;34315;50.150;11.070;2023-04-24T20:27:40;22.13;;;7.10;;
48522;SDS011;34315;50.150;11.070;2023-04-24T20:32:42;8.02;;;3.72;;
48522;SDS011;34315;50.150;11.070;2023-04-24T20:37:43;6.65;;;4.93;;
48522;SDS011;34315;50.150;11.070;2023-04-24T20:42:44;7.65;;;5.13;;
48522;SDS011;34315;50.150;11.070;2023-04-24T20:47:45;7.55;;;4.22;;
48522;SDS011;34315;50.150;11.070;2023-04-24T20:52:47;6.60;;;3.78;;
48522;SDS011;34315;50.150;11.070;2023-04-24T20:57:48;5.57;;;3.78;;
48522;SDS011;34315;50.150;11.070;2023-04-24T21:02:49;7.30;;;4.38;;
48522;SDS011;34315;50.150;11.070;2023-04-24T21:07:50;8.30;;;4.05;;
48522;SDS011;34315;50.150;11.070;2023-04-24T21:17:56;7.20;;;3.70;;
48522;SDS011;34315;50.150;11.070;2023-04-24T21:22:57;7.03;;;4.18;;
48522;SDS011;34315;50.150;11.070;2023-04-24T21:27:58;9.10;;;4.80;;
48522;SDS011;34315;50.150;11.070;2023-04-24T21:32:59;7.93;;;4.40;;
48522;SDS011;34315;50.150;11.070;2023-04-24T21:38:01;7.90;;;4.70;;
48522;SDS011;34315;50.150;11.070;2023-04-24T21:43:02;8.85;;;5.32;;
48522;SDS011;34315;50.150;11.070;2023-04-24T21:48:03;9.02;;;5.15;;
48522;SDS011;34315;50.150;11.070;2023-04-24T21:53:04;7.28;;;5.30;;
48522;SDS011;34315;50.150;11.070;2023-04-24T21:58:05;7.82;;;5.28;;
48522;SDS011;34315;50.150;11.070;2023-04-24T22:03:06;7.82;;;5.00;;
48522;SDS011;34315;50.150;11.070;2023-04-24T22:08:07;8.48;;;5.80;;
48522;SDS011;34315;50.150;11.070;2023-04-24T22:13:10;7.65;;;5.00;;
48522;SDS011;34315;50.150;11.070;2023-04-24T22:18:11;8.18;;;4.47;;
48522;SDS011;34315;50.150;11.070;2023-04-24T22:23:13;7.07;;;4.43;;
48522;SDS011;34315;50.150;11.070;2023-04-24T22:28:17;8.63;;;4.37;;
48522;SDS011;34315;50.150;11.070;2023-04-24T22:33:18;6.88;;;4.15;;
48522;SDS011;34315;50.150;11.070;2023-04-24T22:38:19;6.80;;;4.60;;
48522;SDS011;34315;50.150;11.070;2023-04-24T22:43:20;7.05;;;4.75;;
48522;SDS011;34315;50.150;11.070;2023-04-24T22:48:21;7.15;;;4.07;;
48522;SDS011;34315;50.150;11.070;2023-04-24T22:53:23;7.03;;;3.38;;
48522;SDS011;34315;50.150;11.070;2023-04-24T22:58:24;5.63;;;3.65;;
48522;SDS011;34315;50.150;11.070;2023-04-24T23:03:25;6.07;;;3.42;;
48522;SDS011;34315;50.150;11.070;2023-04-24T23:08:26;5.85;;;3.45;;
48522;SDS011;34315;50.150;11.070;2023-04-24T23:13:27;6.20;;;3.92;;
48522;SDS011;34315;50.150;11.070;2023-04-24T23:18:28;6.32;;;3.85;;
48522;SDS011;34315;50.150;11.070;2023-04-24T23:23:30;5.50;;;3.47;;
48522;SDS011;34315;50.150;11.070;2023-04-24T23:28:31;9.05;;;3.92;;
48522;SDS011;34315;50.150;11.070;2023-04-24T23:33:32;8.25;;;3.65;;
48522;SDS011;34315;50.150;11.070;2023-04-24T23:38:33;8.77;;;3.85;;
48522;SDS011;34315;50.150;11.070;2023-04-24T23:43:34;6.88;;;3.92;;
48522;SDS011;34315;50.150;11.070;2023-04-24T23:48:36;4.85;;;3.50;;
48522;SDS011;34315;50.150;11.070;2023-04-24T23:53:37;7.47;;;4.80;;
48522;SDS011;34315;50.150;11.070;2023-04-24T23:58:38;8.10;;;3.90;;
